createdAt,value
2023-02-12T00:00:19.597Z,35.70
2023-02-12T00:02:27.519Z,36.13
2023-02-12T00:04:35.365Z,36.03
2023-02-12T00:06:44.080Z,37.53
2023-02-12T00:08:53.709Z,36.03
2023-02-12T00:11:01.545Z,34.15
2023-02-12T00:13:09.533Z,34.15
2023-02-12T00:15:20.467Z,34.60
2023-02-12T00:17:28.324Z,36.40
2023-02-12T00:19:36.410Z,36.40
2023-02-12T00:21:44.294Z,34.38
2023-02-12T00:23:53.173Z,37.38
2023-02-12T00:26:00.966Z,36.03
2023-02-12T00:28:08.872Z,36.97
2023-02-12T00:30:20.109Z,37.35
2023-02-12T00:32:28.026Z,39.42
2023-02-12T00:34:37.286Z,37.50
2023-02-12T00:36:45.216Z,34.95
2023-02-12T00:38:55.125Z,37.47
2023-02-12T00:41:05.368Z,36.55
2023-02-12T00:43:13.283Z,35.47
2023-02-12T00:45:24.073Z,36.47
2023-02-12T00:47:53.449Z,38.58
2023-02-12T00:50:02.009Z,37.10
2023-02-12T00:52:10.171Z,36.97
2023-02-12T00:54:18.500Z,35.63
2023-02-12T00:56:26.387Z,37.22
2023-02-12T00:58:34.634Z,37.08
2023-02-12T01:00:45.487Z,36.90
2023-02-12T01:02:53.201Z,36.50
2023-02-12T01:05:01.778Z,36.88
2023-02-12T01:07:09.626Z,36.88
2023-02-12T01:09:18.024Z,36.47
2023-02-12T01:11:27.974Z,36.25
2023-02-12T01:13:37.103Z,37.85
2023-02-12T01:15:47.817Z,37.72
2023-02-12T01:17:56.638Z,37.17
2023-02-12T01:20:05.925Z,36.35
2023-02-12T01:22:14.382Z,39.53
2023-02-12T01:24:24.740Z,37.63
2023-02-12T01:26:33.797Z,37.78
2023-02-12T01:28:42.514Z,40.05
2023-02-12T01:30:53.081Z,38.13
2023-02-12T01:33:01.077Z,38.60
2023-02-12T01:35:11.061Z,39.88
2023-02-12T01:37:21.386Z,38.70
2023-02-12T01:39:29.171Z,37.42
2023-02-12T01:41:42.402Z,39.40
2023-02-12T01:44:13.555Z,37.78
2023-02-12T01:46:24.118Z,40.85
2023-02-12T01:48:35.553Z,39.00
2023-02-12T01:50:46.238Z,39.15
2023-02-12T01:53:00.195Z,38.10
2023-02-12T01:55:11.574Z,35.78
2023-02-12T01:57:21.435Z,39.10
2023-02-12T01:59:29.933Z,38.33
2023-02-12T02:01:40.411Z,39.65
2023-02-12T02:03:50.895Z,37.65
2023-02-12T02:06:02.918Z,40.45
2023-02-12T02:08:12.997Z,40.95
2023-02-12T02:10:21.101Z,38.50
2023-02-12T02:12:42.389Z,38.25
2023-02-12T02:14:49.569Z,40.63
2023-02-12T02:17:09.843Z,36.83
2023-02-12T02:19:33.361Z,39.47
2023-02-12T02:22:05.093Z,38.63
2023-02-12T02:24:40.739Z,37.78
2023-02-12T02:27:17.369Z,37.13
2023-02-12T02:29:46.918Z,39.17
2023-02-12T02:32:04.147Z,38.42
2023-02-12T02:34:16.980Z,39.40
2023-02-12T02:36:34.131Z,39.72
2023-02-12T02:38:47.301Z,37.92
2023-02-12T02:41:02.645Z,37.25
2023-02-12T02:43:17.934Z,38.60
2023-02-12T02:45:31.326Z,39.10
2023-02-12T02:47:46.491Z,35.17
2023-02-12T02:49:59.101Z,37.17
2023-02-12T02:52:11.964Z,37.13
2023-02-12T02:54:24.949Z,37.53
2023-02-12T02:56:33.630Z,37.15
2023-02-12T02:58:45.282Z,36.92
2023-02-12T03:00:58.465Z,36.35
2023-02-12T03:03:14.673Z,37.80
2023-02-12T03:05:28.571Z,36.85
2023-02-12T03:07:41.648Z,36.03
2023-02-12T03:09:55.585Z,35.13
2023-02-12T03:12:08.815Z,35.28
2023-02-12T03:14:22.118Z,37.00
2023-02-12T03:16:33.775Z,35.03
2023-02-12T03:18:48.748Z,35.63
2023-02-12T03:21:02.095Z,36.10
2023-02-12T03:23:13.847Z,33.88
2023-02-12T03:25:26.831Z,35.08
2023-02-12T03:27:36.729Z,36.35
2023-02-12T03:29:44.658Z,35.05
2023-02-12T03:32:05.464Z,33.33
2023-02-12T03:34:25.532Z,34.17
2023-02-12T03:36:40.498Z,33.40
2023-02-12T03:38:52.410Z,34.47
2023-02-12T03:41:06.152Z,34.40
2023-02-12T03:43:25.980Z,35.10
2023-02-12T03:45:44.131Z,35.42
2023-02-12T03:47:59.201Z,34.53
2023-02-12T03:50:16.629Z,35.38
2023-02-12T03:52:24.957Z,36.05
2023-02-12T03:54:33.396Z,34.90
2023-02-12T03:56:48.047Z,37.17
2023-02-12T03:58:56.020Z,33.63
2023-02-12T04:01:05.664Z,35.25
2023-02-12T04:03:13.779Z,35.97
2023-02-12T04:05:27.279Z,34.17
2023-02-12T04:07:35.475Z,37.65
2023-02-12T04:09:48.674Z,34.92
2023-02-12T04:12:12.621Z,36.38
2023-02-12T04:14:30.004Z,36.00
2023-02-12T04:16:46.729Z,35.60
2023-02-12T04:18:56.315Z,35.08
2023-02-12T04:21:15.538Z,33.92
2023-02-12T04:23:42.415Z,35.33
2023-02-12T04:25:59.285Z,32.90
2023-02-12T04:28:17.671Z,33.67
2023-02-12T04:30:31.917Z,34.47
2023-02-12T04:32:46.600Z,35.50
2023-02-12T04:35:00.418Z,36.65
2023-02-12T04:37:18.968Z,34.65
2023-02-12T04:39:30.412Z,34.83
2023-02-12T04:41:38.479Z,35.03
2023-02-12T04:43:46.372Z,34.17
2023-02-12T04:45:55.001Z,33.33
2023-02-12T04:48:03.827Z,32.38
2023-02-12T04:50:12.829Z,35.08
2023-02-12T04:52:23.391Z,34.67
2023-02-12T04:54:31.375Z,33.42
2023-02-12T04:56:39.284Z,32.88
2023-02-12T04:58:47.002Z,32.47
2023-02-12T05:00:54.899Z,34.83
2023-02-12T05:03:03.202Z,35.28
2023-02-12T05:05:11.638Z,33.92
2023-02-12T05:07:24.236Z,33.85
2023-02-12T05:09:32.379Z,34.90
2023-02-12T05:11:40.194Z,36.92
2023-02-12T05:13:51.705Z,31.77
2023-02-12T05:15:59.739Z,35.88
2023-02-12T05:18:08.043Z,34.40
2023-02-12T05:20:17.159Z,32.63
2023-02-12T05:22:27.638Z,36.55
2023-02-12T05:24:35.614Z,32.03
2023-02-12T05:26:43.793Z,32.95
2023-02-12T05:28:52.154Z,35.78
2023-02-12T05:31:03.149Z,35.83
2023-02-12T05:33:11.084Z,34.38
2023-02-12T05:35:19.176Z,34.88
2023-02-12T05:37:31.600Z,32.78
2023-02-12T05:39:39.478Z,35.70
2023-02-12T05:42:01.749Z,34.55
2023-02-12T05:44:12.198Z,34.17
2023-02-12T05:46:21.148Z,35.53
2023-02-12T05:48:32.419Z,35.67
2023-02-12T05:50:40.398Z,34.17
2023-02-12T05:52:51.818Z,36.88
2023-02-12T05:54:59.872Z,35.65
2023-02-12T05:57:09.462Z,36.33
2023-02-12T05:59:19.577Z,35.67
2023-02-12T06:01:30.559Z,35.25
2023-02-12T06:03:38.483Z,36.40
2023-02-12T06:05:46.417Z,35.55
2023-02-12T06:07:57.434Z,36.45
2023-02-12T06:10:05.720Z,35.80
2023-02-12T06:12:13.628Z,36.33
2023-02-12T06:14:24.119Z,33.05
2023-02-12T06:16:32.463Z,35.22
2023-02-12T06:18:43.340Z,37.88
2023-02-12T06:20:51.735Z,36.55
2023-02-12T06:23:02.126Z,37.67
2023-02-12T06:25:11.029Z,36.65
2023-02-12T06:27:18.774Z,36.58
2023-02-12T06:29:26.855Z,37.75
2023-02-12T06:31:37.274Z,38.22
2023-02-12T06:33:45.267Z,38.17
2023-02-12T06:36:29.345Z,36.40
2023-02-12T06:38:49.503Z,37.65
2023-02-12T06:40:57.315Z,38.92
2023-02-12T06:43:05.269Z,36.60
2023-02-12T06:45:13.781Z,36.70
2023-02-12T06:47:21.486Z,38.55
2023-02-12T06:49:29.293Z,37.38
2023-02-12T06:51:38.458Z,38.40
2023-02-12T06:53:48.945Z,37.33
2023-02-12T06:55:57.099Z,37.60
2023-02-12T06:58:05.261Z,38.33
2023-02-12T07:00:14.827Z,39.55
2023-02-12T07:02:22.772Z,38.92
2023-02-12T07:04:30.532Z,38.22
2023-02-12T07:06:39.096Z,39.33
2023-02-12T07:08:50.731Z,35.85
2023-02-12T07:10:58.495Z,36.83
2023-02-12T07:13:08.350Z,39.42
2023-02-12T07:15:16.177Z,38.90
2023-02-12T07:17:24.353Z,37.42
2023-02-12T07:19:34.499Z,39.67
2023-02-12T07:21:42.344Z,39.10
2023-02-12T07:23:54.402Z,38.60
2023-02-12T07:26:03.952Z,39.45
2023-02-12T07:28:11.987Z,40.72
2023-02-12T07:30:20.135Z,39.97
2023-02-12T07:32:28.122Z,39.80
2023-02-12T07:34:36.572Z,41.17
2023-02-12T07:36:44.625Z,39.85
2023-02-12T07:38:55.041Z,41.03
2023-02-12T07:41:10.935Z,41.03
2023-02-12T07:43:18.929Z,40.80
2023-02-12T07:45:29.274Z,41.28
2023-02-12T07:47:38.650Z,40.97
2023-02-12T07:49:46.599Z,38.47
2023-02-12T07:51:57.083Z,39.20
2023-02-12T07:54:08.463Z,41.20
2023-02-12T07:56:18.187Z,43.10
2023-02-12T07:58:26.228Z,39.72
2023-02-12T08:00:34.347Z,41.97
2023-02-12T08:02:43.817Z,39.42
2023-02-12T08:04:52.192Z,37.95
2023-02-12T08:07:00.255Z,39.75
2023-02-12T08:09:12.820Z,38.38
2023-02-12T08:11:20.972Z,36.33
2023-02-12T08:13:28.928Z,39.42
2023-02-12T08:15:38.684Z,37.17
2023-02-12T08:17:48.123Z,41.42
2023-02-12T08:19:56.002Z,37.85
2023-02-12T08:22:06.585Z,37.17
2023-02-12T08:24:17.085Z,36.65
2023-02-12T08:26:29.067Z,37.70
2023-02-12T08:28:37.214Z,38.83
2023-02-12T08:30:45.235Z,39.67
2023-02-12T08:32:54.093Z,36.45
2023-02-12T08:35:04.378Z,38.30
2023-02-12T08:37:12.378Z,39.50
2023-02-12T08:39:23.268Z,40.50
2023-02-12T08:41:32.849Z,37.78
2023-02-12T08:43:41.962Z,36.85
2023-02-12T08:45:49.937Z,40.28
2023-02-12T08:47:57.909Z,38.80
2023-02-12T08:50:05.712Z,36.35
2023-02-12T08:52:13.769Z,35.72
2023-02-12T08:54:30.150Z,38.60
2023-02-12T08:56:38.653Z,36.75
2023-02-12T08:58:47.313Z,34.08
2023-02-12T09:00:55.405Z,36.13
2023-02-12T09:03:03.191Z,33.58
2023-02-12T09:05:11.229Z,36.30
2023-02-12T09:07:20.054Z,35.03
2023-02-12T09:09:30.829Z,38.05
2023-02-12T09:11:39.036Z,33.90
2023-02-12T09:13:48.221Z,37.70
2023-02-12T09:15:56.342Z,36.72
2023-02-12T09:18:05.621Z,36.08
2023-02-12T09:20:16.307Z,37.42
2023-02-12T09:22:24.206Z,34.78
2023-02-12T09:24:37.612Z,34.38
2023-02-12T09:26:45.405Z,33.95
2023-02-12T09:28:55.146Z,31.35
2023-02-12T09:31:08.852Z,32.33
2023-02-12T09:33:17.371Z,28.63
2023-02-12T09:35:25.301Z,31.40
2023-02-12T09:37:34.538Z,29.70
2023-02-12T09:39:45.237Z,30.48
2023-02-12T09:42:22.892Z,27.98
2023-02-12T09:44:39.163Z,20.30
2023-02-12T09:46:54.330Z,24.05
2023-02-12T09:49:12.462Z,20.70
2023-02-12T09:51:20.403Z,20.80
2023-02-12T09:53:35.419Z,17.25
2023-02-12T09:55:46.270Z,18.00
2023-02-12T09:57:55.045Z,17.38
2023-02-12T10:00:08.164Z,16.23
2023-02-12T10:02:18.271Z,16.55
2023-02-12T10:04:27.892Z,15.65
2023-02-12T10:06:46.084Z,13.95
2023-02-12T10:09:17.458Z,12.65
2023-02-12T10:11:43.257Z,10.57
2023-02-12T10:13:56.996Z,12.30
2023-02-12T10:16:17.147Z,13.65
2023-02-12T10:18:53.034Z,12.55
2023-02-12T10:21:11.031Z,11.07
2023-02-12T10:23:42.438Z,11.55
2023-02-12T10:25:54.747Z,5.75
2023-02-12T10:28:12.847Z,7.60
2023-02-12T10:30:25.216Z,8.10
2023-02-12T10:32:38.534Z,7.50
2023-02-12T10:34:46.955Z,6.53
2023-02-12T10:36:59.377Z,6.53
2023-02-12T10:39:15.776Z,7.40
2023-02-12T10:41:24.925Z,7.07
2023-02-12T10:43:35.902Z,7.72
2023-02-12T10:45:45.293Z,8.10
2023-02-12T10:48:06.955Z,7.63
2023-02-12T10:50:23.363Z,8.40
2023-02-12T10:52:42.482Z,7.82
2023-02-12T10:54:51.640Z,7.47
2023-02-12T10:56:59.350Z,7.07
2023-02-12T10:59:23.786Z,7.00
2023-02-12T11:01:33.589Z,8.13
2023-02-12T11:03:42.731Z,8.70
2023-02-12T11:05:51.236Z,9.95
2023-02-12T11:07:59.310Z,8.95
2023-02-12T11:10:24.310Z,8.85
2023-02-12T11:12:41.065Z,8.10
2023-02-12T11:14:56.388Z,7.90
2023-02-12T11:17:07.159Z,7.53
2023-02-12T11:19:29.887Z,8.15
2023-02-12T11:21:39.213Z,7.00
2023-02-12T11:23:47.636Z,6.95
2023-02-12T11:26:00.971Z,7.07
2023-02-12T11:28:18.480Z,7.80
2023-02-12T11:30:30.504Z,7.35
2023-02-12T11:32:38.409Z,8.50
2023-02-12T11:34:46.245Z,8.57
2023-02-12T11:36:56.210Z,7.25
2023-02-12T11:39:04.336Z,8.50
2023-02-12T11:41:28.396Z,9.85
2023-02-12T11:43:39.753Z,9.18
2023-02-12T11:45:52.797Z,7.88
2023-02-12T11:48:00.979Z,7.35
2023-02-12T11:50:12.178Z,7.95
2023-02-12T11:52:24.482Z,7.75
2023-02-12T11:54:43.831Z,7.95
2023-02-12T11:56:55.512Z,8.10
2023-02-12T11:59:20.733Z,7.38
2023-02-12T12:01:37.165Z,7.63
2023-02-12T12:03:55.769Z,7.75
2023-02-12T12:06:09.234Z,6.35
2023-02-12T12:08:26.090Z,6.50
2023-02-12T12:10:40.818Z,5.72
2023-02-12T12:12:54.921Z,5.55
2023-02-12T12:15:18.528Z,6.90
2023-02-12T12:17:53.641Z,5.57
2023-02-12T12:20:10.579Z,6.55
2023-02-12T12:22:32.722Z,5.72
2023-02-12T12:24:48.992Z,6.97
2023-02-12T12:27:03.507Z,5.63
2023-02-12T12:29:21.196Z,6.07
2023-02-12T12:31:34.838Z,6.45
2023-02-12T12:33:49.646Z,6.00
2023-02-12T12:36:09.539Z,5.40
2023-02-12T12:38:29.099Z,6.63
2023-02-12T12:40:52.922Z,6.05
2023-02-12T12:43:15.672Z,5.50
2023-02-12T12:45:42.097Z,5.68
2023-02-12T12:48:04.890Z,5.78
2023-02-12T12:50:32.826Z,5.07
2023-02-12T12:53:07.841Z,5.00
2023-02-12T12:55:43.878Z,5.47
2023-02-12T12:58:04.519Z,5.32
2023-02-12T13:00:25.445Z,4.70
2023-02-12T13:03:00.922Z,4.30
2023-02-12T13:05:48.486Z,5.07
2023-02-12T13:08:08.102Z,4.93
2023-02-12T13:10:26.383Z,4.78
2023-02-12T13:13:01.824Z,5.10
2023-02-12T13:15:21.558Z,4.35
2023-02-12T13:17:35.883Z,4.93
2023-02-12T13:19:56.266Z,4.60
2023-02-12T13:22:09.578Z,4.47
2023-02-12T13:24:31.960Z,4.60
2023-02-12T13:26:50.639Z,4.55
2023-02-12T13:29:03.953Z,4.43
2023-02-12T13:31:32.572Z,4.75
2023-02-12T13:33:46.025Z,5.10
2023-02-12T13:36:00.825Z,4.60
2023-02-12T13:38:12.056Z,4.93
2023-02-12T13:40:25.221Z,5.40
2023-02-12T13:42:45.822Z,4.55
2023-02-12T13:45:02.400Z,4.82
2023-02-12T13:47:17.997Z,5.00
2023-02-12T13:49:34.635Z,5.68
2023-02-12T13:51:47.502Z,4.80
2023-02-12T13:54:07.394Z,5.13
2023-02-12T13:56:30.443Z,5.30
2023-02-12T13:58:54.063Z,5.20
2023-02-12T14:01:03.720Z,5.28
2023-02-12T14:03:12.644Z,5.25
2023-02-12T14:05:56.420Z,5.57
2023-02-12T14:08:40.155Z,5.00
2023-02-12T14:11:09.468Z,4.50
2023-02-12T14:13:28.301Z,5.10
2023-02-12T14:15:39.085Z,5.75
2023-02-12T14:17:59.128Z,5.00
2023-02-12T14:20:11.902Z,5.60
2023-02-12T14:23:00.842Z,4.05
2023-02-12T14:25:35.235Z,4.63
2023-02-12T14:27:48.779Z,5.80
2023-02-12T14:30:28.245Z,4.45
2023-02-12T14:33:11.882Z,4.85
2023-02-12T14:35:36.142Z,4.22
2023-02-12T14:37:44.030Z,4.68
2023-02-12T14:39:51.985Z,4.85
2023-02-12T14:42:34.783Z,5.05
2023-02-12T14:44:49.188Z,4.93
2023-02-12T14:47:02.826Z,4.75
2023-02-12T14:49:23.364Z,4.32
2023-02-12T14:51:38.792Z,4.82
2023-02-12T14:53:51.470Z,4.50
2023-02-12T14:56:00.928Z,5.03
2023-02-12T14:58:21.836Z,4.25
2023-02-12T15:00:36.914Z,4.95
2023-02-12T15:02:50.816Z,4.35
2023-02-12T15:05:04.918Z,4.50
2023-02-12T15:07:17.701Z,4.55
2023-02-12T15:09:33.495Z,3.78
2023-02-12T15:11:46.196Z,4.18
2023-02-12T15:14:00.769Z,4.25
2023-02-12T15:16:17.845Z,4.70
2023-02-12T15:18:33.643Z,4.85
2023-02-12T15:20:48.821Z,4.70
2023-02-12T15:22:56.996Z,4.55
2023-02-12T15:25:19.550Z,3.70
2023-02-12T15:27:27.559Z,4.30
2023-02-12T15:29:44.350Z,4.53
2023-02-12T15:31:58.790Z,4.50
2023-02-12T15:34:09.853Z,4.60
2023-02-12T15:36:22.538Z,4.32
2023-02-12T15:38:34.943Z,4.60
2023-02-12T15:40:58.329Z,4.57
2023-02-12T15:43:11.365Z,4.90
2023-02-12T15:45:26.072Z,4.57
2023-02-12T15:47:34.842Z,4.68
2023-02-12T15:49:46.961Z,4.95
2023-02-12T15:51:54.908Z,5.10
2023-02-12T15:54:04.902Z,5.60
2023-02-12T15:56:16.203Z,5.28
2023-02-12T15:58:27.939Z,4.78
2023-02-12T16:00:43.764Z,5.60
2023-02-12T16:02:55.236Z,6.07
2023-02-12T16:05:07.874Z,4.90
2023-02-12T16:07:16.656Z,5.35
2023-02-12T16:09:34.035Z,5.85
2023-02-12T16:11:44.492Z,5.03
2023-02-12T16:13:54.797Z,6.40
2023-02-12T16:16:11.552Z,5.75
2023-02-12T16:18:29.273Z,5.97
2023-02-12T16:20:48.013Z,6.05
2023-02-12T16:22:56.680Z,5.82
2023-02-12T16:25:05.662Z,6.20
2023-02-12T16:27:21.754Z,6.03
2023-02-12T16:29:32.709Z,6.13
2023-02-12T16:31:40.603Z,5.72
2023-02-12T16:33:52.766Z,6.18
2023-02-12T16:36:09.728Z,8.77
2023-02-12T16:38:44.144Z,7.55
2023-02-12T16:41:24.411Z,7.40
2023-02-12T16:43:32.246Z,8.70
2023-02-12T16:45:46.095Z,8.00
2023-02-12T16:47:54.380Z,8.38
2023-02-12T16:50:04.067Z,9.10
2023-02-12T16:52:41.491Z,9.20
2023-02-12T16:54:49.445Z,8.48
2023-02-12T16:56:58.723Z,7.38
2023-02-12T16:59:06.519Z,8.65
2023-02-12T17:01:20.537Z,9.18
2023-02-12T17:03:29.217Z,9.50
2023-02-12T17:05:37.239Z,9.90
2023-02-12T17:07:48.045Z,8.63
2023-02-12T17:09:56.022Z,10.05
2023-02-12T17:12:03.918Z,11.25
2023-02-12T17:14:17.329Z,11.30
2023-02-12T17:16:31.229Z,9.73
2023-02-12T17:18:39.823Z,9.43
2023-02-12T17:20:51.327Z,12.15
2023-02-12T17:23:01.733Z,9.82
2023-02-12T17:25:09.998Z,11.63
2023-02-12T17:27:18.932Z,14.75
2023-02-12T17:29:28.539Z,10.80
2023-02-12T17:31:37.813Z,12.00
2023-02-12T17:33:45.729Z,10.75
2023-02-12T17:35:53.734Z,14.30
2023-02-12T17:38:04.360Z,18.33
2023-02-12T17:40:13.999Z,11.30
2023-02-12T17:42:22.134Z,12.80
2023-02-12T17:44:30.073Z,13.02
2023-02-12T17:46:38.106Z,20.02
2023-02-12T17:48:46.094Z,14.02
2023-02-12T17:50:58.440Z,10.50
2023-02-12T17:53:09.793Z,10.95
2023-02-12T17:55:18.901Z,13.90
2023-02-12T17:57:26.850Z,14.43
2023-02-12T17:59:34.912Z,10.15
2023-02-12T18:01:42.932Z,10.70
2023-02-12T18:03:53.777Z,11.35
2023-02-12T18:06:02.304Z,12.45
2023-02-12T18:08:13.440Z,11.98
2023-02-12T18:10:21.901Z,10.40
2023-02-12T18:12:29.948Z,11.30
2023-02-12T18:14:37.994Z,11.77
2023-02-12T18:16:45.841Z,10.73
2023-02-12T18:18:54.224Z,10.93
2023-02-12T18:21:02.363Z,11.30
2023-02-12T18:23:13.109Z,9.38
2023-02-12T18:25:21.060Z,9.93
2023-02-12T18:27:29.188Z,10.90
2023-02-12T18:29:37.065Z,11.77
2023-02-12T18:31:45.472Z,12.32
2023-02-12T18:33:54.211Z,10.43
2023-02-12T18:36:04.212Z,10.85
2023-02-12T18:38:14.753Z,10.85
2023-02-12T18:40:23.212Z,11.73
2023-02-12T18:42:33.376Z,10.45
2023-02-12T18:44:42.962Z,10.40
2023-02-12T18:46:50.978Z,10.32
2023-02-12T18:48:59.337Z,10.68
2023-02-12T18:51:09.170Z,11.25
2023-02-12T18:53:20.042Z,12.50
2023-02-12T18:55:28.160Z,9.45
2023-02-12T18:57:36.535Z,10.30
2023-02-12T18:59:44.982Z,10.63
2023-02-12T19:01:53.674Z,11.13
2023-02-12T19:04:04.637Z,13.25
2023-02-12T19:06:12.596Z,11.93
2023-02-12T19:08:23.427Z,10.20
2023-02-12T19:10:31.626Z,10.90
2023-02-12T19:12:39.540Z,15.68
2023-02-12T19:14:47.654Z,12.13
2023-02-12T19:16:57.978Z,11.07
2023-02-12T19:19:08.221Z,12.10
2023-02-12T19:21:18.277Z,12.50
2023-02-12T19:23:29.272Z,11.88
2023-02-12T19:25:41.667Z,11.65
2023-02-12T19:27:49.760Z,11.93
2023-02-12T19:29:57.610Z,10.00
2023-02-12T19:32:05.667Z,10.07
2023-02-12T19:34:20.622Z,12.45
2023-02-12T19:36:32.951Z,12.63
2023-02-12T19:38:44.112Z,11.65
2023-02-12T19:40:51.991Z,11.18
2023-02-12T19:42:59.820Z,10.73
2023-02-12T19:45:08.488Z,11.93
2023-02-12T19:47:16.625Z,13.75
2023-02-12T19:49:27.602Z,12.90
2023-02-12T19:51:38.200Z,12.50
2023-02-12T19:53:50.201Z,14.20
2023-02-12T19:55:58.680Z,13.38
2023-02-12T19:58:06.741Z,13.00
2023-02-12T20:00:17.132Z,12.10
2023-02-12T20:02:25.489Z,12.20
2023-02-12T20:04:34.043Z,15.18
2023-02-12T20:06:43.817Z,14.98
2023-02-12T20:08:55.081Z,12.35
2023-02-12T20:11:03.206Z,15.05
2023-02-12T20:13:11.727Z,13.25
2023-02-12T20:15:19.919Z,13.13
2023-02-12T20:17:27.993Z,17.77
2023-02-12T20:19:36.144Z,12.73
2023-02-12T20:21:48.835Z,14.25
2023-02-12T20:24:01.826Z,12.23
2023-02-12T20:26:11.965Z,11.98
2023-02-12T20:28:20.257Z,12.35
2023-02-12T20:30:28.727Z,11.65
2023-02-12T20:32:37.212Z,12.65
2023-02-12T20:34:50.788Z,16.10
2023-02-12T20:36:59.014Z,13.77
2023-02-12T20:39:13.568Z,17.27
2023-02-12T20:41:23.212Z,14.20
2023-02-12T20:43:31.585Z,14.13
2023-02-12T20:45:39.456Z,14.18
2023-02-12T20:47:47.586Z,13.48
2023-02-12T20:49:58.025Z,13.40
2023-02-12T20:52:05.988Z,14.10
2023-02-12T20:54:18.496Z,13.80
2023-02-12T20:56:28.648Z,13.40
2023-02-12T20:58:36.628Z,16.02
2023-02-12T21:00:44.975Z,14.10
2023-02-12T21:02:54.650Z,13.35
2023-02-12T21:05:02.691Z,14.18
2023-02-12T21:07:10.663Z,15.13
2023-02-12T21:09:21.664Z,13.60
2023-02-12T21:11:35.316Z,15.15
2023-02-12T21:13:53.901Z,14.07
2023-02-12T21:16:13.982Z,14.88
2023-02-12T21:18:25.800Z,14.07
2023-02-12T21:20:33.573Z,13.65
2023-02-12T21:22:42.236Z,14.27
2023-02-12T21:24:52.723Z,14.10
2023-02-12T21:27:00.733Z,16.25
2023-02-12T21:29:25.299Z,15.80
2023-02-12T21:31:38.334Z,14.88
2023-02-12T21:33:49.577Z,15.68
2023-02-12T21:35:58.114Z,15.23
2023-02-12T21:38:09.225Z,15.60
2023-02-12T21:40:19.906Z,16.50
2023-02-12T21:42:30.251Z,17.02
2023-02-12T21:44:39.240Z,16.98
2023-02-12T21:46:47.930Z,15.52
2023-02-12T21:48:55.986Z,16.95
2023-02-12T21:51:07.295Z,15.60
2023-02-12T21:53:17.499Z,15.68
2023-02-12T21:55:43.250Z,16.23
2023-02-12T21:57:52.000Z,17.50
2023-02-12T22:00:10.209Z,15.43
2023-02-12T22:02:29.540Z,15.25
2023-02-12T22:04:41.239Z,17.00
2023-02-12T22:06:54.106Z,17.00
2023-02-12T22:09:09.015Z,16.45
2023-02-12T22:11:20.381Z,16.40
2023-02-12T22:13:28.388Z,16.80
2023-02-12T22:15:36.467Z,16.70
2023-02-12T22:17:44.456Z,17.85
2023-02-12T22:19:52.699Z,17.48
2023-02-12T22:22:01.962Z,16.60
2023-02-12T22:24:15.177Z,16.55
2023-02-12T22:26:29.158Z,15.93
2023-02-12T22:28:41.373Z,17.88
2023-02-12T22:30:49.466Z,16.83
2023-02-12T22:32:57.238Z,19.33
2023-02-12T22:35:05.011Z,18.23
2023-02-12T22:37:13.013Z,18.58
2023-02-12T22:39:22.472Z,17.63
2023-02-12T22:41:33.217Z,19.30
2023-02-12T22:43:42.842Z,20.10
2023-02-12T22:45:51.028Z,18.77
2023-02-12T22:47:59.379Z,18.13
2023-02-12T22:50:08.344Z,19.65
2023-02-12T22:52:16.624Z,19.50
2023-02-12T22:54:25.048Z,20.00
2023-02-12T22:56:35.771Z,20.02
2023-02-12T22:58:44.589Z,22.45
2023-02-12T23:00:52.666Z,19.70
2023-02-12T23:03:00.815Z,22.35
2023-02-12T23:05:09.154Z,21.85
2023-02-12T23:07:16.965Z,19.95
2023-02-12T23:09:24.724Z,21.02
2023-02-12T23:11:36.406Z,21.95
2023-02-12T23:13:44.445Z,20.50
2023-02-12T23:15:55.139Z,21.63
2023-02-12T23:18:03.022Z,21.85
2023-02-12T23:20:12.226Z,22.02
2023-02-12T23:22:19.967Z,22.40
2023-02-12T23:24:28.474Z,19.80
2023-02-12T23:26:38.975Z,21.30
2023-02-12T23:28:46.848Z,22.20
2023-02-12T23:30:55.520Z,22.45
2023-02-12T23:33:03.472Z,23.85
2023-02-12T23:35:11.682Z,21.58
2023-02-12T23:37:19.740Z,23.15
2023-02-12T23:39:27.824Z,21.92
2023-02-12T23:41:38.681Z,22.67
2023-02-12T23:43:46.431Z,23.63
2023-02-12T23:45:54.373Z,21.88
2023-02-12T23:48:02.663Z,21.92
2023-02-12T23:50:11.738Z,20.55
2023-02-12T23:52:19.707Z,20.80
2023-02-12T23:54:27.632Z,22.23
2023-02-12T23:56:38.394Z,21.00
2023-02-12T23:58:46.774Z,19.55
